createdAt,value
2023-03-10T00:02:01.697Z,58.26
2023-03-10T00:07:05.274Z,57.97
2023-03-10T00:12:10.900Z,57.87
2023-03-10T00:17:14.440Z,57.74
2023-03-10T00:22:17.882Z,57.04
2023-03-10T00:27:22.799Z,57.57
2023-03-10T00:32:26.529Z,56.83
2023-03-10T00:37:29.964Z,56.60
2023-03-10T00:42:35.007Z,56.80
2023-03-10T00:47:38.607Z,57.02
2023-03-10T00:52:42.082Z,56.29
2023-03-10T00:57:46.838Z,56.17
2023-03-10T01:02:51.719Z,55.74
2023-03-10T01:07:55.369Z,55.42
2023-03-10T01:13:00.288Z,54.98
2023-03-10T01:18:05.229Z,55.28
2023-03-10T01:23:08.790Z,54.66
2023-03-10T01:28:13.899Z,54.71
2023-03-10T01:33:18.928Z,54.88
2023-03-10T01:38:22.556Z,54.43
2023-03-10T01:43:37.474Z,53.65
2023-03-10T01:48:40.795Z,54.51
2023-03-10T01:53:44.821Z,54.04
2023-03-10T01:58:51.044Z,54.24
2023-03-10T02:03:58.556Z,53.75
2023-03-10T02:09:05.464Z,53.76
2023-03-10T02:14:10.517Z,53.61
2023-03-10T02:19:28.082Z,53.59
2023-03-10T02:24:40.018Z,53.62
2023-03-10T02:29:58.884Z,53.41
2023-03-10T02:35:03.218Z,53.25
2023-03-10T02:40:32.390Z,52.79
2023-03-10T02:45:40.713Z,52.93
2023-03-10T02:50:48.253Z,52.96
2023-03-10T02:55:52.185Z,52.61
2023-03-10T03:00:57.970Z,52.52
2023-03-10T03:06:01.973Z,52.76
2023-03-10T03:11:06.076Z,52.79
2023-03-10T03:16:12.474Z,52.45
2023-03-10T03:21:17.803Z,52.84
2023-03-10T03:26:23.881Z,52.46
2023-03-10T03:31:28.890Z,53.09
2023-03-10T03:36:32.511Z,52.61
2023-03-10T03:41:36.256Z,52.70
2023-03-10T03:46:41.132Z,52.69
2023-03-10T03:51:44.634Z,52.69
2023-03-10T03:56:47.996Z,53.44
2023-03-10T04:01:52.765Z,52.92
2023-03-10T04:06:56.500Z,53.22
2023-03-10T04:12:00.148Z,53.55
2023-03-10T04:17:05.759Z,53.37
2023-03-10T04:22:09.205Z,53.37
2023-03-10T04:27:12.587Z,53.42
2023-03-10T04:32:17.490Z,53.16
2023-03-10T04:37:22.151Z,53.03
2023-03-10T04:42:26.838Z,52.87
2023-03-10T04:47:31.780Z,53.03
2023-03-10T04:52:35.242Z,52.88
2023-03-10T04:57:38.768Z,53.62
2023-03-10T05:02:43.581Z,53.09
2023-03-10T05:07:46.960Z,53.06
2023-03-10T05:12:50.394Z,52.91
2023-03-10T05:17:55.199Z,52.06
2023-03-10T05:22:58.562Z,52.07
2023-03-10T05:28:02.047Z,50.42
2023-03-10T05:33:06.944Z,49.03
2023-03-10T05:38:10.750Z,46.34
2023-03-10T05:43:16.616Z,45.04
2023-03-10T05:48:22.323Z,43.87
2023-03-10T05:53:25.687Z,44.02
2023-03-10T05:58:29.237Z,42.59
2023-03-10T06:03:34.873Z,42.58
2023-03-10T06:08:38.585Z,42.74
2023-03-10T06:13:42.110Z,40.82
2023-03-10T06:18:47.066Z,35.27
2023-03-10T06:23:50.315Z,34.26
2023-03-10T06:28:53.730Z,36.02
2023-03-10T06:33:59.546Z,38.07
2023-03-10T06:39:02.963Z,39.20
2023-03-10T06:44:06.708Z,39.06
2023-03-10T06:49:11.844Z,38.80
2023-03-10T06:54:15.349Z,37.81
2023-03-10T06:59:19.340Z,34.91
2023-03-10T07:04:24.183Z,30.76
2023-03-10T07:09:29.071Z,29.69
2023-03-10T07:14:32.874Z,30.85
2023-03-10T07:19:38.361Z,32.82
2023-03-10T07:24:41.960Z,32.19
2023-03-10T07:29:45.413Z,33.01
2023-03-10T07:34:52.689Z,32.47
2023-03-10T07:39:56.212Z,32.43
2023-03-10T07:44:59.615Z,34.24
2023-03-10T07:50:04.640Z,32.85
2023-03-10T07:55:08.829Z,33.17
2023-03-10T08:00:13.777Z,33.20
2023-03-10T08:05:18.413Z,33.82
2023-03-10T08:10:21.952Z,33.96
2023-03-10T08:15:26.502Z,32.97
2023-03-10T08:20:32.374Z,34.28
2023-03-10T08:25:35.942Z,32.72
2023-03-10T08:30:56.917Z,33.25
2023-03-10T08:36:12.765Z,33.32
2023-03-10T08:41:19.255Z,33.51
2023-03-10T08:46:24.915Z,33.12
2023-03-10T08:51:30.729Z,29.75
2023-03-10T08:56:34.297Z,28.56
2023-03-10T09:01:39.173Z,30.00
2023-03-10T09:06:44.020Z,31.44
2023-03-10T09:11:47.521Z,33.33
2023-03-10T09:16:51.009Z,33.89
2023-03-10T09:21:57.796Z,34.54
2023-03-10T09:27:01.222Z,35.96
2023-03-10T09:32:06.562Z,36.54
2023-03-10T09:37:12.437Z,37.39
2023-03-10T09:42:37.415Z,38.13
2023-03-10T09:47:51.253Z,38.92
2023-03-10T09:53:03.075Z,39.17
2023-03-10T09:58:07.047Z,38.94
2023-03-10T10:03:18.790Z,39.20
2023-03-10T10:08:29.116Z,38.58
2023-03-10T10:13:35.718Z,38.27
2023-03-10T10:18:43.129Z,37.87
2023-03-10T10:23:50.828Z,38.17
2023-03-10T10:28:57.049Z,38.48
2023-03-10T10:34:02.228Z,38.58
2023-03-10T10:39:27.992Z,39.23
2023-03-10T10:44:41.808Z,39.68
2023-03-10T10:49:45.276Z,39.50
2023-03-10T10:54:57.023Z,39.52
2023-03-10T11:00:18.646Z,39.26
2023-03-10T11:05:24.845Z,39.06
2023-03-10T11:10:34.266Z,39.15
2023-03-10T11:15:49.050Z,39.25
2023-03-10T11:21:00.543Z,38.98
2023-03-10T11:26:13.016Z,39.29
2023-03-10T11:31:30.829Z,38.73
2023-03-10T11:36:55.136Z,38.38
2023-03-10T11:42:04.475Z,38.75
2023-03-10T11:47:19.128Z,36.91
2023-03-10T11:52:26.468Z,37.04
2023-03-10T11:57:37.985Z,36.86
2023-03-10T12:02:49.718Z,36.48
2023-03-10T12:07:55.918Z,36.27
2023-03-10T12:13:02.277Z,36.03
2023-03-10T12:18:07.203Z,35.91
2023-03-10T12:23:42.042Z,36.14
2023-03-10T12:28:46.970Z,35.94
2023-03-10T12:33:53.734Z,35.86
2023-03-10T12:38:58.187Z,36.17
2023-03-10T12:44:04.237Z,36.43
2023-03-10T12:49:33.899Z,36.33
2023-03-10T12:54:49.720Z,36.74
2023-03-10T13:00:03.103Z,36.47
2023-03-10T13:05:19.430Z,36.99
2023-03-10T13:10:30.168Z,37.00
2023-03-10T13:15:35.580Z,37.73
2023-03-10T13:20:39.835Z,38.09
2023-03-10T13:25:53.073Z,38.59
2023-03-10T13:31:11.476Z,38.67
2023-03-10T13:36:35.039Z,38.42
2023-03-10T13:41:42.295Z,39.12
2023-03-10T13:46:52.001Z,39.21
2023-03-10T13:51:57.052Z,39.56
2023-03-10T13:57:17.867Z,39.81
2023-03-10T14:02:28.359Z,39.66
2023-03-10T14:07:33.333Z,39.47
2023-03-10T14:12:38.770Z,40.29
2023-03-10T14:17:46.837Z,40.20
2023-03-10T14:22:50.259Z,40.32
2023-03-10T14:28:00.381Z,40.57
2023-03-10T14:33:12.902Z,40.14
2023-03-10T14:38:16.579Z,40.74
2023-03-10T14:43:23.003Z,40.89
2023-03-10T14:48:29.709Z,40.80
2023-03-10T14:53:33.685Z,40.95
2023-03-10T14:58:45.229Z,41.24
2023-03-10T15:03:50.608Z,41.51
2023-03-10T15:08:54.424Z,42.08
2023-03-10T15:13:58.316Z,42.00
2023-03-10T15:19:03.190Z,42.53
2023-03-10T15:24:07.949Z,42.18
2023-03-10T15:29:14.470Z,42.19
2023-03-10T15:34:20.642Z,42.95
2023-03-10T15:39:31.521Z,42.56
2023-03-10T15:44:36.309Z,43.11
2023-03-10T15:49:41.731Z,42.98
2023-03-10T15:54:45.174Z,43.50
2023-03-10T15:59:48.846Z,43.56
2023-03-10T16:04:53.930Z,43.53
2023-03-10T16:09:59.816Z,43.67
2023-03-10T16:15:03.630Z,43.61
2023-03-10T16:20:12.376Z,43.91
2023-03-10T16:25:17.956Z,44.01
2023-03-10T16:30:22.504Z,44.03
2023-03-10T16:35:27.425Z,44.32
2023-03-10T16:40:30.977Z,43.90
2023-03-10T16:45:34.757Z,44.58
2023-03-10T16:50:39.566Z,44.86
2023-03-10T16:55:42.785Z,44.81
2023-03-10T17:00:46.222Z,44.94
2023-03-10T17:05:54.020Z,44.74
2023-03-10T17:10:57.480Z,44.75
2023-03-10T17:16:01.682Z,45.54
2023-03-10T17:21:14.125Z,45.09
2023-03-10T17:26:17.961Z,44.94
2023-03-10T17:31:23.864Z,44.98
2023-03-10T17:36:29.597Z,45.64
2023-03-10T17:41:34.402Z,45.68
2023-03-10T17:46:37.949Z,45.41
2023-03-10T17:51:44.623Z,45.90
2023-03-10T17:56:48.640Z,45.27
2023-03-10T18:01:52.330Z,45.31
2023-03-10T18:06:57.443Z,45.91
2023-03-10T18:12:01.107Z,45.80
2023-03-10T18:17:04.587Z,46.09
2023-03-10T18:22:09.634Z,46.11
2023-03-10T18:27:13.105Z,45.84
2023-03-10T18:32:16.518Z,45.87
2023-03-10T18:37:21.622Z,46.01
2023-03-10T18:42:26.693Z,45.97
2023-03-10T18:47:30.259Z,45.96
2023-03-10T18:52:35.115Z,46.56
2023-03-10T18:57:38.905Z,46.68
2023-03-10T19:02:42.439Z,46.00
2023-03-10T19:07:47.713Z,46.75
2023-03-10T19:12:51.342Z,46.64
2023-03-10T19:17:54.831Z,46.76
2023-03-10T19:22:59.857Z,47.20
2023-03-10T19:28:03.405Z,47.03
2023-03-10T19:33:06.940Z,47.85
2023-03-10T19:38:11.957Z,48.19
2023-03-10T19:43:15.514Z,47.71
2023-03-10T19:48:18.950Z,47.46
2023-03-10T19:53:24.098Z,47.69
2023-03-10T19:58:28.260Z,47.92
2023-03-10T20:03:34.306Z,47.81
2023-03-10T20:08:39.353Z,47.64
2023-03-10T20:13:44.372Z,47.99
2023-03-10T20:18:47.772Z,47.58
2023-03-10T20:23:55.445Z,47.37
2023-03-10T20:29:01.462Z,47.84
2023-03-10T20:34:07.061Z,47.68
2023-03-10T20:39:12.089Z,48.36
2023-03-10T20:44:15.874Z,47.56
2023-03-10T20:49:19.326Z,47.81
2023-03-10T20:54:24.302Z,47.80
2023-03-10T20:59:27.704Z,47.51
2023-03-10T21:04:31.113Z,47.67
2023-03-10T21:09:36.069Z,47.71
2023-03-10T21:14:39.561Z,47.66
2023-03-10T21:19:43.032Z,48.20
2023-03-10T21:24:47.937Z,47.73
2023-03-10T21:29:51.722Z,47.58
2023-03-10T21:34:55.312Z,48.31
2023-03-10T21:40:00.163Z,47.83
2023-03-10T21:45:03.968Z,48.28
2023-03-10T21:50:08.806Z,47.78
2023-03-10T21:55:19.714Z,48.06
2023-03-10T22:00:24.755Z,48.63
2023-03-10T22:05:28.203Z,48.37
2023-03-10T22:10:33.121Z,48.43
2023-03-10T22:15:36.664Z,48.73
2023-03-10T22:20:40.172Z,48.58
2023-03-10T22:25:44.964Z,48.57
2023-03-10T22:30:48.461Z,48.90
2023-03-10T22:35:52.797Z,48.75
2023-03-10T22:40:57.864Z,48.79
2023-03-10T22:46:08.838Z,48.74
2023-03-10T22:51:18.307Z,49.15
2023-03-10T22:56:23.131Z,48.88
2023-03-10T23:01:26.714Z,48.95
2023-03-10T23:06:30.291Z,49.16
2023-03-10T23:11:35.171Z,48.83
2023-03-10T23:16:38.811Z,48.96
2023-03-10T23:21:42.240Z,48.94
2023-03-10T23:26:47.003Z,48.87
2023-03-10T23:31:50.243Z,49.68
2023-03-10T23:36:55.983Z,49.76
2023-03-10T23:42:00.756Z,49.29
2023-03-10T23:47:04.327Z,50.06
2023-03-10T23:52:08.277Z,50.63
2023-03-10T23:57:13.281Z,50.53
